Bei Facebook empfehlenBei Twitter postenGoogle plusPinterest

Das Wetter im Erzgebirge am 18.08.2016

Wetter und Klima am 18.08.2016 Holzhau im Erzgebirge (630m ü.NN)
Letzte gemessene Temperatur und Uhrzeit der Messung23:45:00 Uhr8.10 °C
Temperatur (Maximum / Höchstwert) und Uhrzeit der Messung16:45:00 Uhr23.20 °C
Temperatur (Minimum / Tiefstwert) und Uhrzeit der Messung06:45:003.60 °C
Errechneter Absolutwert der Temperaturschwankungen zwischen Tmin und Tmax des Tages19.60 K
Errechnete Tagesmitteltemperatur13.11042 °C
Gesamt - Niederschlag des Tages (in flüssiger Form)0.00 Liter / m²
Luftdruck (Maximum / Höchstwert) und Zeitpunkt der Messung00:00:00 Uhr1010.80 hPa
Luftdruck (Minimum / Tiefstwert) und Zeitpunkt der Messung16:45:00 Uhr1007.70 hPa
Errechneter Absolutwert der Luftdruckschwankungen des Tages3.10 hPa
Höchste gemessene Windgeschwindigkeit und Uhrzeit der Messung23:45:00 Uhr0.00 km/h
Errechnete Windhäufigkeit in Relation zu den Messwerten des Tages0.00000 %
Niedrigste Windkühle (Windchill) und Zeitpunkt der Messung06:45:00 Uhr3.60 °C
Taupunkt (Maximum / Höchstwert) und Uhrzeit der Messung09:45:00 Uhr14.20 °C
Taupunkt (Minimum / Tiefstwert) und Uhrzeit der Messung06:15:002.40 °C
Anzahl der automatisch eingelesenen Messwerte 96

Detaillierte Wetter- und Klima- Messwerte für den 18.08.2016 in Holzhau im Erzgebirge (630m ü.NN)
ZeitTemperaturLuftdruckRel. LuftfeuchteWindWindrichtungWindchillTaupunktNiederschlag l/m²
23:45:008.10 °C1008.50 hPa85.00 %5.70 °C 
23:30:008.30 °C1008.70 hPa84.00 %5.80 °C 
23:15:008.70 °C1008.70 hPa84.00 %6.20 °C 
23:00:008.90 °C1008.70 hPa83.00 %6.20 °C 
22:45:009.10 °C1008.70 hPa82.00 %6.20 °C 
22:30:009.00 °C1008.60 hPa81.00 %5.90 °C 
22:15:009.40 °C1008.60 hPa80.00 %6.10 °C 
22:00:009.60 °C1008.50 hPa79.00 %6.10 °C 
21:45:009.80 °C1008.50 hPa77.00 %6.00 °C 
21:30:0010.30 °C1008.50 hPa76.00 %6.30 °C 
21:15:0010.90 °C1008.50 hPa75.00 %6.60 °C 
21:00:0011.60 °C1008.40 hPa72.00 %6.70 °C 
20:45:0012.30 °C1008.50 hPa70.00 %7.00 °C 
20:30:0013.40 °C1008.50 hPa67.00 %7.40 °C 
20:15:0014.80 °C1008.40 hPa64.00 %8.10 °C 
20:00:0015.90 °C1008.20 hPa62.00 %8.60 °C 
19:45:0017.10 °C1008.20 hPa59.00 %9.00 °C 
19:30:0018.30 °C1008.10 hPa57.00 %9.60 °C 
19:15:0019.30 °C1008.10 hPa53.00 %9.50 °C 
19:00:0020.30 °C1008.00 hPa50.00 %9.50 °C 
18:45:0020.90 °C1008.10 hPa48.00 %9.50 °C 
18:30:0021.30 °C1008.00 hPa48.00 %9.90 °C 
18:15:0021.80 °C1008.10 hPa48.00 %10.30 °C 
18:00:0022.10 °C1008.20 hPa48.00 %10.60 °C 
17:45:0022.30 °C1008.10 hPa47.00 %10.50 °C 
17:30:0022.80 °C1007.90 hPa48.00 %11.20 °C 
17:15:0023.10 °C1008.00 hPa47.00 %11.20 °C 
17:00:0022.90 °C1007.90 hPa48.00 %11.30 °C 
16:45:0023.20 °C1007.70 hPa48.00 %11.60 °C 
16:30:0023.20 °C1007.70 hPa48.00 %11.60 °C 
16:15:0023.20 °C1007.80 hPa49.00 %11.90 °C 
16:00:0022.90 °C1007.70 hPa50.00 %11.90 °C 
15:45:0022.70 °C1007.80 hPa49.00 %11.40 °C 
15:30:0022.30 °C1007.70 hPa52.00 %12.00 °C 
15:15:0021.80 °C1007.70 hPa51.00 %11.20 °C 
15:00:0022.20 °C1007.80 hPa51.00 %11.60 °C 
14:45:0021.80 °C1008.00 hPa51.00 %11.20 °C 
14:30:0022.10 °C1008.00 hPa51.00 %11.50 °C 
14:15:0022.30 °C1008.00 hPa51.00 %11.70 °C 
14:00:0021.90 °C1007.90 hPa52.00 %11.60 °C 
13:45:0021.80 °C1008.00 hPa52.00 %11.50 °C 
13:30:0021.90 °C1008.10 hPa52.00 %11.60 °C 
13:15:0021.40 °C1008.20 hPa53.00 %11.40 °C 
13:00:0021.40 °C1008.00 hPa54.00 %11.70 °C 
12:45:0021.10 °C1007.90 hPa56.00 %12.00 °C 
12:30:0020.90 °C1007.80 hPa56.00 %11.80 °C 
12:15:0020.50 °C1007.70 hPa59.00 %12.20 °C 
12:00:0019.90 °C1007.80 hPa60.00 %11.90 °C 
11:45:0019.20 °C1007.90 hPa62.00 %11.70 °C 
11:30:0019.40 °C1007.90 hPa62.00 %11.90 °C 
11:15:0019.80 °C1008.00 hPa64.00 %12.80 °C 
11:00:0019.80 °C1007.90 hPa66.00 %13.30 °C 
10:45:0019.30 °C1007.90 hPa68.00 %13.20 °C 
10:30:0018.80 °C1007.90 hPa72.00 %13.60 °C 
10:15:0018.10 °C1007.90 hPa75.00 %13.60 °C 
10:00:0017.40 °C1008.00 hPa80.00 %13.90 °C 
09:45:0016.50 °C1008.00 hPa86.00 %14.20 °C 
09:30:0015.50 °C1008.10 hPa91.00 %14.00 °C 
09:15:0014.30 °C1008.00 hPa92.00 %13.00 °C 
09:00:0012.90 °C1008.10 hPa93.00 %11.80 °C 
08:45:0011.40 °C1008.00 hPa93.00 %10.30 °C 
08:30:0010.30 °C1007.90 hPa93.00 %9.20 °C 
08:15:009.10 °C1007.90 hPa93.00 %8.00 °C 
08:00:008.10 °C1008.20 hPa93.00 %7.00 °C 
07:45:007.20 °C1008.30 hPa93.00 %6.10 °C 
07:30:006.10 °C1008.40 hPa93.00 %5.10 °C 
07:15:004.50 °C1008.40 hPa93.00 %3.50 °C 
07:00:003.90 °C1008.30 hPa93.00 %2.90 °C 
06:45:003.60 °C1008.40 hPa93.00 %2.60 °C 
06:30:003.80 °C1008.40 hPa92.00 %2.60 °C 
06:15:003.60 °C1008.40 hPa92.00 %2.40 °C 
06:00:003.60 °C1008.50 hPa92.00 %2.40 °C 
05:45:003.80 °C1008.60 hPa92.00 %2.60 °C 
05:30:003.60 °C1008.60 hPa92.00 %2.40 °C 
05:15:003.80 °C1008.50 hPa92.00 %2.60 °C 
05:00:003.90 °C1008.50 hPa92.00 %2.70 °C 
04:45:003.80 °C1008.60 hPa91.00 %2.50 °C 
04:30:003.90 °C1008.80 hPa92.00 %2.70 °C 
04:15:004.00 °C1008.90 hPa92.00 %2.80 °C 
04:00:004.10 °C1009.00 hPa92.00 %2.90 °C 
03:45:004.00 °C1009.00 hPa91.00 %2.70 °C 
03:30:004.20 °C1009.40 hPa91.00 %2.90 °C 
03:15:004.40 °C1009.40 hPa91.00 %3.10 °C 
03:00:004.40 °C1009.40 hPa91.00 %3.10 °C 
02:45:004.50 °C1009.60 hPa91.00 %3.20 °C 
02:30:004.30 °C1009.70 hPa90.00 %2.80 °C 
02:15:004.40 °C1009.70 hPa90.00 %2.90 °C 
02:00:004.80 °C1009.90 hPa90.00 %3.30 °C 
01:45:005.20 °C1010.10 hPa90.00 %3.70 °C 
01:30:005.30 °C1010.30 hPa90.00 %3.80 °C 
01:15:005.50 °C1010.30 hPa90.00 %4.00 °C 
01:00:005.60 °C1010.40 hPa89.00 %3.90 °C 
00:45:005.90 °C1010.40 hPa89.00 %4.20 °C 
00:30:005.90 °C1010.60 hPa89.00 %4.20 °C 
00:15:006.10 °C1010.70 hPa89.00 %4.40 °C 
00:00:006.20 °C1010.80 hPa88.00 %4.40 °C 

Permanenter Link zu dieser Seite: Wetter im Erzgebirge am 18.08.2016
Performance-Info: Die Erstellung der Seite / Statistik(en) / Tabelle(n) erforderte 5 Datenbankserver-Abfrage(n) und dauerte 122 Millisekunden. (Dieser Messwert ist von der Gesamt-Auslastung des Servers abhängig.)
Erzgebirge - Wetter | Erzgebirge - Wetter (Mobilgeräte) | Komplette Klimadatenbank